MSC Cordoba — A8OF8 — position and weather

sailwx.info

Track history (hours):
 
Tides and Currents Weather Stations Pressure Air Temp Water Temp Dewpoint Dewpoint Depression Visibility Wind Speed Wind Dir Waves Ship Positions

MSC Cordoba

Last reported at 2017-Feb-27 13:16 UTC. Time now 2017-Feb-27 14:07 UTC.
Position N 40°46' E 029°32'.

Length 275 m; draft 11.6 m.

Type: Ship (hazmat cat A). MMSI: 636091473.

Date/timePositionNaut miles runAvg speedWind from/ knotsBaromVisibWave heightAir tempDewpointWater temp
2017-Feb-27 13:16N 40°46' E 029°32'0 0.0
2017-Feb-27 12:28N 40°46' E 029°32'0 0.0
2017-Feb-27 11:28N 40°46' E 029°32'0 0.0
2017-Feb-27 10:21N 40°46' E 029°32'0 0.0
2017-Feb-27 09:27N 40°46' E 029°32'0 0.0
2017-Feb-27 08:32N 40°46' E 029°32'0 0.0
2017-Feb-27 07:32N 40°46' E 029°32'0 0.0
2017-Feb-27 06:19N 40°46' E 029°32'0 0.0
2017-Feb-27 04:19N 40°46' E 029°32'0 0.0
2017-Feb-27 03:22N 40°46' E 029°32'5 5.1
2017-Feb-27 02:20N 40°44' E 029°26'810.2
2017-Feb-27 01:33N 40°44' E 029°15'1515.2
2017-Feb-27 00:33N 40°43' E 028°55'71315.7
2017-Feb-25 03:16N 36°28' E 014°43'1521.1
2017-Feb-25 02:33N 36°31' E 014°25'2121.4
2017-Feb-25 01:33N 36°37' E 013°59'2121.4
2017-Feb-25 00:33N 36°44' E 013°34'2121.2
2017-Feb-24 23:33N 36°50' E 013°09'2120.6
2017-Feb-24 22:31N 36°57' E 012°44'2020.9
2017-Feb-24 21:33N 37°03' E 012°20'83721.3
2017-Feb-23 06:14N 35°58' W 004°59'810.8
2017-Feb-23 05:32N 35°57' W 005°08'1111.2
2017-Feb-23 04:34N 35°58' W 005°22'2523.4
2017-Feb-23 03:30N 35°55' W 005°52'17821.2
2017-Feb-22 19:06N 36°40' W 009°25'3920.9
2017-Feb-22 17:14N 37°16' W 009°44'1521.6
2017-Feb-22 16:33N 37°31' W 009°48'2221.7
2017-Feb-22 15:33N 37°52' W 009°55'2121.2
2017-Feb-22 14:33N 38°12' W 009°60'2121.1
2017-Feb-22 13:33N 38°33' W 010°05'2121.2
2017-Feb-22 12:33N 38°54' W 010°07'2121.4
2017-Feb-22 11:33N 39°16' W 010°07'2221.6
2017-Feb-22 10:33N 39°37' W 010°08'68219.5
2017-Feb-20 23:33N 49°53' W 003°15'2020.1
2017-Feb-20 22:32N 50°01' W 002°46'2621.0
2017-Feb-20 21:18N 50°08' W 002°07'1621.8
2017-Feb-20 20:33N 50°12' W 001°42'2221.5
2017-Feb-20 19:33N 50°17' W 001°10'3020.8
2017-Feb-20 18:07N 50°25' W 000°24'1320.2
2017-Feb-20 17:28N 50°28' W 000°05'1819.7
2017-Feb-20 16:33N 50°34' E 000°23'2019.6
2017-Feb-20 15:33N 50°42' E 000°51'2820.2
2017-Feb-20 14:10N 50°60' E 001°25'1321.4
2017-Feb-20 13:33N 51°09' E 001°40'2020.4
2017-Feb-20 12:33N 51°24' E 002°01'1918.9
2017-Feb-20 11:33N 51°23' E 002°31'1312.9
2017-Feb-20 10:33N 51°25' E 002°51'1414.4
2017-Feb-20 09:33N 51°25' E 003°14'1413.6
2017-Feb-20 08:33N 51°26' E 003°36'1110.8
2017-Feb-20 07:33N 51°21' E 003°51'8 7.5
2017-Feb-20 06:33N 51°24' E 004°02'9 8.7
2017-Feb-20 05:33N 51°21' E 004°15'4 3.0
2017-Feb-20 04:19N 51°17' E 004°15'0 0.0
2017-Feb-20 02:30N 51°17' E 004°15'0 0.0
2017-Feb-20 01:30N 51°17' E 004°15'0 0.0
2017-Feb-20 00:29N 51°17' E 004°15'0 0.0
2017-Feb-19 23:29N 51°17' E 004°15'0 0.0
2017-Feb-19 22:29N 51°17' E 004°15'0 0.0
2017-Feb-19 21:22N 51°17' E 004°15'0 0.0
2017-Feb-19 20:31N 51°17' E 004°15'0 0.0
2017-Feb-19 19:27N 51°17' E 004°15'0 0.0
2017-Feb-19 18:10N 51°17' E 004°15'0 0.0
2017-Feb-19 17:22N 51°17' E 004°15'0 0.0
2017-Feb-19 16:33N 51°17' E 004°15'0 0.0
2017-Feb-19 15:33N 51°17' E 004°15'0 0.0
2017-Feb-19 14:29N 51°17' E 004°15'0 0.0
2017-Feb-19 13:29N 51°17' E 004°15'0 0.0
2017-Feb-19 12:32N 51°17' E 004°15'0 0.0
2017-Feb-19 11:31N 51°17' E 004°15'0 0.0
2017-Feb-19 10:13N 51°17' E 004°15'0 0.0
2017-Feb-19 09:24N 51°17' E 004°15'0 0.0
2017-Feb-19 08:24N 51°17' E 004°15'0 0.0
2017-Feb-19 07:29N 51°17' E 004°15'0 0.0
2017-Feb-19 06:29N 51°17' E 004°15'0 0.0
2017-Feb-19 05:32N 51°17' E 004°15'0 0.0
2017-Feb-19 04:28N 51°17' E 004°15'0 0.0
2017-Feb-19 03:31N 51°17' E 004°15'0 0.0
2017-Feb-19 02:27N 51°17' E 004°15'0 0.0
2017-Feb-19 01:27N 51°17' E 004°15'0 0.0
2017-Feb-19 00:26N 51°17' E 004°15'0 0.0
2017-Feb-18 23:27N 51°17' E 004°15'1 1.6
2017-Feb-18 22:33N 51°19' E 004°16'6 6.1
2017-Feb-18 21:33N 51°23' E 004°10'8 7.8
2017-Feb-18 20:33N 51°24' E 003°57'9 9.2
2017-Feb-18 19:33N 51°24' E 003°43'1111.3
2017-Feb-18 18:33N 51°25' E 003°24'1818.1
2017-Feb-18 17:33N 51°25' E 002°55'1414.4
2017-Feb-18 16:33N 51°22' E 002°33'2020.5
2017-Feb-18 15:33N 51°22' E 002°00'2121.1
2017-Feb-18 14:33N 51°41' E 001°44'1312.8
2017-Feb-18 13:34N 51°52' E 001°34'1010.4
2017-Feb-18 12:34N 51°56' E 001°19'1 1.3
2017-Feb-18 11:32N 51°58' E 001°18'0 0.0
2017-Feb-18 10:31N 51°58' E 001°18'0 0.0
2017-Feb-18 09:31N 51°58' E 001°18'0 0.0
2017-Feb-18 08:34N 51°58' E 001°18'0 0.0
2017-Feb-18 07:33N 51°58' E 001°18'0 0.0
2017-Feb-18 06:33N 51°58' E 001°18'0 0.0
2017-Feb-18 05:32N 51°58' E 001°18'0 0.0
2017-Feb-18 04:32N 51°58' E 001°18'0 0.0
2017-Feb-18 03:31N 51°58' E 001°18'0 0.0
2017-Feb-18 02:31N 51°58' E 001°18'0 0.0
2017-Feb-18 01:33N 51°58' E 001°18'0 0.0
2017-Feb-18 00:30N 51°58' E 001°18'0 0.0
2017-Feb-17 23:27N 51°58' E 001°18'0 0.0
2017-Feb-17 22:32N 51°58' E 001°18'0 0.0
2017-Feb-17 21:30N 51°58' E 001°18'0 0.0
2017-Feb-17 20:32N 51°58' E 001°18'0 0.0
2017-Feb-17 19:32N 51°58' E 001°18'0 0.0
2017-Feb-17 18:28N 51°58' E 001°18'0 0.0
2017-Feb-17 17:31N 51°58' E 001°18'0 0.0
2017-Feb-17 16:33N 51°58' E 001°18'0 0.0
2017-Feb-17 15:21N 51°58' E 001°18'0 0.0
2017-Feb-17 14:33N 51°58' E 001°18'0 0.0
2017-Feb-17 13:29N 51°58' E 001°18'  
Track history (hours):
 
Tides and Currents Weather Stations Pressure Air Temp Water Temp Dewpoint Dewpoint Depression Visibility Wind Speed Wind Dir Waves Ship Positions

MSC Cordoba

Last reported at 2017-Feb-27 13:16 UTC. Time now 2017-Feb-27 14:07 UTC.
Position N 40°46' E 029°32'.

Length 275 m; draft 11.6 m.

Type: Ship (hazmat cat A). MMSI: 636091473.

Date/timePositionNaut miles runAvg speedWind from/ knotsBaromVisibWave heightAir tempDewpointWater temp
2017-Feb-27 13:16N 40°46' E 029°32'0 0.0
2017-Feb-27 12:28N 40°46' E 029°32'0 0.0
2017-Feb-27 11:28N 40°46' E 029°32'0 0.0
2017-Feb-27 10:21N 40°46' E 029°32'0 0.0
2017-Feb-27 09:27N 40°46' E 029°32'0 0.0
2017-Feb-27 08:32N 40°46' E 029°32'0 0.0
2017-Feb-27 07:32N 40°46' E 029°32'0 0.0
2017-Feb-27 06:19N 40°46' E 029°32'0 0.0
2017-Feb-27 04:19N 40°46' E 029°32'0 0.0
2017-Feb-27 03:22N 40°46' E 029°32'5 5.1
2017-Feb-27 02:20N 40°44' E 029°26'810.2
2017-Feb-27 01:33N 40°44' E 029°15'1515.2
2017-Feb-27 00:33N 40°43' E 028°55'71315.7
2017-Feb-25 03:16N 36°28' E 014°43'1521.1
2017-Feb-25 02:33N 36°31' E 014°25'2121.4
2017-Feb-25 01:33N 36°37' E 013°59'2121.4
2017-Feb-25 00:33N 36°44' E 013°34'2121.2
2017-Feb-24 23:33N 36°50' E 013°09'2120.6
2017-Feb-24 22:31N 36°57' E 012°44'2020.9
2017-Feb-24 21:33N 37°03' E 012°20'83721.3
2017-Feb-23 06:14N 35°58' W 004°59'810.8
2017-Feb-23 05:32N 35°57' W 005°08'1111.2
2017-Feb-23 04:34N 35°58' W 005°22'2523.4
2017-Feb-23 03:30N 35°55' W 005°52'17821.2
2017-Feb-22 19:06N 36°40' W 009°25'3920.9
2017-Feb-22 17:14N 37°16' W 009°44'1521.6
2017-Feb-22 16:33N 37°31' W 009°48'2221.7
2017-Feb-22 15:33N 37°52' W 009°55'2121.2
2017-Feb-22 14:33N 38°12' W 009°60'2121.1
2017-Feb-22 13:33N 38°33' W 010°05'2121.2
2017-Feb-22 12:33N 38°54' W 010°07'2121.4
2017-Feb-22 11:33N 39°16' W 010°07'2221.6
2017-Feb-22 10:33N 39°37' W 010°08'68219.5
2017-Feb-20 23:33N 49°53' W 003°15'2020.1
2017-Feb-20 22:32N 50°01' W 002°46'2621.0
2017-Feb-20 21:18N 50°08' W 002°07'1621.8
2017-Feb-20 20:33N 50°12' W 001°42'2221.5
2017-Feb-20 19:33N 50°17' W 001°10'3020.8
2017-Feb-20 18:07N 50°25' W 000°24'1320.2
2017-Feb-20 17:28N 50°28' W 000°05'1819.7
2017-Feb-20 16:33N 50°34' E 000°23'2019.6
2017-Feb-20 15:33N 50°42' E 000°51'2820.2
2017-Feb-20 14:10N 50°60' E 001°25'1321.4
2017-Feb-20 13:33N 51°09' E 001°40'2020.4
2017-Feb-20 12:33N 51°24' E 002°01'1918.9
2017-Feb-20 11:33N 51°23' E 002°31'1312.9
2017-Feb-20 10:33N 51°25' E 002°51'1414.4
2017-Feb-20 09:33N 51°25' E 003°14'1413.6
2017-Feb-20 08:33N 51°26' E 003°36'1110.8
2017-Feb-20 07:33N 51°21' E 003°51'8 7.5
2017-Feb-20 06:33N 51°24' E 004°02'9 8.7
2017-Feb-20 05:33N 51°21' E 004°15'4 3.0
2017-Feb-20 04:19N 51°17' E 004°15'0 0.0
2017-Feb-20 02:30N 51°17' E 004°15'0 0.0
2017-Feb-20 01:30N 51°17' E 004°15'0 0.0
2017-Feb-20 00:29N 51°17' E 004°15'0 0.0
2017-Feb-19 23:29N 51°17' E 004°15'0 0.0
2017-Feb-19 22:29N 51°17' E 004°15'0 0.0
2017-Feb-19 21:22N 51°17' E 004°15'0 0.0
2017-Feb-19 20:31N 51°17' E 004°15'0 0.0
2017-Feb-19 19:27N 51°17' E 004°15'0 0.0
2017-Feb-19 18:10N 51°17' E 004°15'0 0.0
2017-Feb-19 17:22N 51°17' E 004°15'0 0.0
2017-Feb-19 16:33N 51°17' E 004°15'0 0.0
2017-Feb-19 15:33N 51°17' E 004°15'0 0.0
2017-Feb-19 14:29N 51°17' E 004°15'0 0.0
2017-Feb-19 13:29N 51°17' E 004°15'0 0.0
2017-Feb-19 12:32N 51°17' E 004°15'0 0.0
2017-Feb-19 11:31N 51°17' E 004°15'0 0.0
2017-Feb-19 10:13N 51°17' E 004°15'0 0.0
2017-Feb-19 09:24N 51°17' E 004°15'0 0.0
2017-Feb-19 08:24N 51°17' E 004°15'0 0.0
2017-Feb-19 07:29N 51°17' E 004°15'0 0.0
2017-Feb-19 06:29N 51°17' E 004°15'0 0.0
2017-Feb-19 05:32N 51°17' E 004°15'0 0.0
2017-Feb-19 04:28N 51°17' E 004°15'0 0.0
2017-Feb-19 03:31N 51°17' E 004°15'0 0.0
2017-Feb-19 02:27N 51°17' E 004°15'0 0.0
2017-Feb-19 01:27N 51°17' E 004°15'0 0.0
2017-Feb-19 00:26N 51°17' E 004°15'0 0.0
2017-Feb-18 23:27N 51°17' E 004°15'1 1.6
2017-Feb-18 22:33N 51°19' E 004°16'6 6.1
2017-Feb-18 21:33N 51°23' E 004°10'8 7.8
2017-Feb-18 20:33N 51°24' E 003°57'9 9.2
2017-Feb-18 19:33N 51°24' E 003°43'1111.3
2017-Feb-18 18:33N 51°25' E 003°24'1818.1
2017-Feb-18 17:33N 51°25' E 002°55'1414.4
2017-Feb-18 16:33N 51°22' E 002°33'2020.5
2017-Feb-18 15:33N 51°22' E 002°00'2121.1
2017-Feb-18 14:33N 51°41' E 001°44'1312.8
2017-Feb-18 13:34N 51°52' E 001°34'1010.4
2017-Feb-18 12:34N 51°56' E 001°19'1 1.3
2017-Feb-18 11:32N 51°58' E 001°18'0 0.0
2017-Feb-18 10:31N 51°58' E 001°18'0 0.0
2017-Feb-18 09:31N 51°58' E 001°18'0 0.0
2017-Feb-18 08:34N 51°58' E 001°18'0 0.0
2017-Feb-18 07:33N 51°58' E 001°18'0 0.0
2017-Feb-18 06:33N 51°58' E 001°18'0 0.0
2017-Feb-18 05:32N 51°58' E 001°18'0 0.0
2017-Feb-18 04:32N 51°58' E 001°18'0 0.0
2017-Feb-18 03:31N 51°58' E 001°18'0 0.0
2017-Feb-18 02:31N 51°58' E 001°18'0 0.0
2017-Feb-18 01:33N 51°58' E 001°18'0 0.0
2017-Feb-18 00:30N 51°58' E 001°18'0 0.0
2017-Feb-17 23:27N 51°58' E 001°18'0 0.0
2017-Feb-17 22:32N 51°58' E 001°18'0 0.0
2017-Feb-17 21:30N 51°58' E 001°18'0 0.0
2017-Feb-17 20:32N 51°58' E 001°18'0 0.0
2017-Feb-17 19:32N 51°58' E 001°18'0 0.0
2017-Feb-17 18:28N 51°58' E 001°18'0 0.0
2017-Feb-17 17:31N 51°58' E 001°18'0 0.0
2017-Feb-17 16:33N 51°58' E 001°18'0 0.0
2017-Feb-17 15:21N 51°58' E 001°18'0 0.0
2017-Feb-17 14:33N 51°58' E 001°18'0 0.0
2017-Feb-17 13:29N 51°58' E 001°18'  

Dump ship's entire track history